Time;durP1;ratioP1;P1;durP2;ratioP2;P2;SDS_P1;SDS_P2;PMS_P1;PMS_P2;Temp;Humidity;BMP_temperature;BMP_pressure;BME280_temperature;BME280_humidity;BME280_pressure;Samples;Min_cycle;Max_cycle;Signal;HPM_P1;HPM_P2
2023/07/18 00:02:19;;;;;;;;;;;17.20;75.60;;;;;;4953401;28;19925;-75
2023/07/18 00:04:45;;;;;;;;;;;17.10;75.60;;;;;;4971009;28;19997;-76
2023/07/18 00:07:10;;;;;;;;;;;17.10;75.60;;;;;;4970530;28;20331;-76
2023/07/18 00:09:37;;;;;;;;;;;17.00;75.60;;;;;;4953394;28;20276;-76
2023/07/18 00:12:03;;;;;;;;;;;17.00;75.60;;;;;;4937900;28;19918;-76
2023/07/18 00:14:29;;;;;;;;;;;17.00;75.60;;;;;;4953567;28;19961;-76
2023/07/18 00:16:55;;;;;;;;;;;16.90;75.60;;;;;;4937683;28;19918;-76
2023/07/18 00:19:21;;;;;;;;;;;16.80;75.50;;;;;;4973336;28;19961;-76
2023/07/18 00:21:47;;;;;;;;;;;16.80;75.60;;;;;;4973979;28;19918;-76
2023/07/18 00:24:13;;;;;;;;;;;16.80;75.60;;;;;;4941307;28;19918;-76
2023/07/18 00:26:39;;;;;;;;;;;16.70;75.60;;;;;;4957610;28;20336;-76
2023/07/18 00:29:05;;;;;;;;;;;16.70;75.60;;;;;;4940659;28;19926;-76
2023/07/18 00:31:31;;;;;;;;;;;16.70;75.60;;;;;;4956355;28;19914;-76
2023/07/18 00:33:57;;;;;;;;;;;16.60;75.60;;;;;;4956215;28;19910;-76
2023/07/18 00:36:23;;;;;;;;;;;16.60;75.50;;;;;;4956330;28;20076;-76
2023/07/18 00:38:49;;;;;;;;;;;16.60;75.50;;;;;;4956030;28;20473;-76
2023/07/18 00:41:14;;;;;;;;;;;16.50;75.50;;;;;;4939988;28;20282;-76
2023/07/18 00:43:40;;;;;;;;;;;16.50;75.60;;;;;;4956438;28;19940;-76
2023/07/18 00:46:08;;;;;;;;;;;16.50;75.60;;;;;;4956222;28;20388;-76
2023/07/18 00:48:34;;;;;;;;;;;16.40;75.60;;;;;;4956893;28;19917;-76
2023/07/18 00:51:00;;;;;;;;;;;16.40;75.50;;;;;;4958331;28;20396;-76
2023/07/18 00:53:25;;;;;;;;;;;16.40;75.50;;;;;;4975852;28;19910;-76
2023/07/18 00:55:53;;;;;;;;;;;16.30;75.50;;;;;;4975907;28;19940;-76
2023/07/18 00:58:18;;;;;;;;;;;16.20;75.50;;;;;;4957550;28;19937;-76
2023/07/18 01:00:44;;;;;;;;;;;16.30;75.70;;;;;;4942484;28;19918;-76
2023/07/18 01:03:09;;;;;;;;;;;16.20;75.60;;;;;;4973763;28;19914;-76
2023/07/18 01:05:35;;;;;;;;;;;16.20;75.60;;;;;;4973482;28;19910;-76
2023/07/18 01:08:00;;;;;;;;;;;16.20;75.60;;;;;;4939433;28;19914;-76
2023/07/18 01:10:26;;;;;;;;;;;16.20;75.70;;;;;;4955708;28;19921;-76
2023/07/18 01:13:01;;;;;;;;;;;16.20;75.70;;;;;;4955854;28;19943;-76
2023/07/18 01:15:29;;;;;;;;;;;16.20;75.60;;;;;;4955827;28;19919;-76
2023/07/18 01:17:55;;;;;;;;;;;16.20;75.60;;;;;;4972919;28;20343;-76
2023/07/18 01:20:22;;;;;;;;;;;16.20;75.60;;;;;;4973157;28;19945;-76
2023/07/18 01:22:49;;;;;;;;;;;16.20;75.50;;;;;;4955833;28;19910;-77
2023/07/18 01:25:16;;;;;;;;;;;16.20;75.60;;;;;;4972506;28;20330;-76
2023/07/18 01:27:43;;;;;;;;;;;16.10;75.50;;;;;;4940517;28;19950;-76
2023/07/18 01:30:09;;;;;;;;;;;16.20;75.60;;;;;;4972697;28;20346;-76
2023/07/18 01:32:35;;;;;;;;;;;16.20;75.60;;;;;;4956743;28;19915;-76
2023/07/18 01:35:05;;;;;;;;;;;16.10;75.60;;;;;;4955583;28;19969;-76
2023/07/18 01:37:35;;;;;;;;;;;16.10;75.60;;;;;;4955007;28;19915;-76
2023/07/18 01:40:01;;;;;;;;;;;16.10;75.60;;;;;;4971972;28;19957;-76
2023/07/18 01:42:26;;;;;;;;;;;16.20;75.70;;;;;;4954240;28;19954;-76
2023/07/18 01:44:52;;;;;;;;;;;16.20;75.70;;;;;;4954551;28;19969;-76
2023/07/18 01:47:18;;;;;;;;;;;16.20;75.70;;;;;;4954939;28;20286;-77
2023/07/18 01:49:43;;;;;;;;;;;16.20;75.60;;;;;;4972390;28;20375;-76
2023/07/18 01:52:10;;;;;;;;;;;16.20;75.60;;;;;;4972062;28;19914;-77
2023/07/18 01:54:36;;;;;;;;;;;16.20;75.60;;;;;;4955412;28;19911;-77
2023/07/18 01:57:01;;;;;;;;;;;16.20;75.60;;;;;;4955144;28;19922;-76
2023/07/18 01:59:27;;;;;;;;;;;16.20;75.60;;;;;;4955770;28;19918;-76
2023/07/18 02:01:52;;;;;;;;;;;16.20;75.60;;;;;;4955746;28;19915;-76
2023/07/18 02:04:18;;;;;;;;;;;16.10;75.60;;;;;;4955968;28;19997;-77
2023/07/18 02:06:44;;;;;;;;;;;16.10;75.60;;;;;;4955151;28;20286;-76
2023/07/18 02:09:10;;;;;;;;;;;16.10;75.60;;;;;;4972542;28;20286;-76
2023/07/18 02:11:35;;;;;;;;;;;16.10;75.60;;;;;;4954123;28;19922;-76
2023/07/18 02:14:03;;;;;;;;;;;16.10;75.60;;;;;;4971558;28;19918;-76
2023/07/18 02:16:29;;;;;;;;;;;16.10;75.60;;;;;;4971590;28;20402;-76
2023/07/18 02:18:56;;;;;;;;;;;16.10;75.60;;;;;;4972115;28;19915;-76
2023/07/18 02:21:21;;;;;;;;;;;16.10;75.60;;;;;;4971266;28;19938;-76
2023/07/18 02:23:47;;;;;;;;;;;16.10;75.60;;;;;;4954154;28;20489;-76
2023/07/18 02:26:14;;;;;;;;;;;16.10;75.60;;;;;;4972342;28;20279;-77
2023/07/18 02:28:39;;;;;;;;;;;16.10;75.60;;;;;;4971468;28;19933;-77
2023/07/18 02:31:05;;;;;;;;;;;16.10;75.60;;;;;;4954287;28;19914;-76
2023/07/18 02:33:30;;;;;;;;;;;16.10;75.60;;;;;;4953468;28;20000;-77
2023/07/18 02:35:56;;;;;;;;;;;16.00;75.60;;;;;;4970755;28;20479;-77
2023/07/18 02:38:22;;;;;;;;;;;16.10;75.60;;;;;;4973207;28;19925;-77
2023/07/18 02:40:48;;;;;;;;;;;16.10;75.60;;;;;;4953412;28;19921;-77
2023/07/18 02:43:14;;;;;;;;;;;16.10;75.60;;;;;;4970784;28;19945;-77
2023/07/18 02:45:40;;;;;;;;;;;16.00;75.60;;;;;;4971084;28;20013;-77
2023/07/18 02:48:05;;;;;;;;;;;16.00;75.60;;;;;;4953513;28;20290;-77
2023/07/18 02:50:31;;;;;;;;;;;16.10;75.60;;;;;;4953438;28;19914;-77
2023/07/18 02:52:58;;;;;;;;;;;16.10;75.70;;;;;;4970193;28;20370;-77
2023/07/18 02:55:24;;;;;;;;;;;16.10;75.70;;;;;;4970170;28;19958;-77
2023/07/18 02:57:53;;;;;;;;;;;16.10;75.70;;;;;;4952747;28;19914;-77
2023/07/18 03:00:19;;;;;;;;;;;16.10;75.70;;;;;;4970494;28;19914;-77
2023/07/18 03:02:46;;;;;;;;;;;16.10;75.80;;;;;;4952991;28;20010;-77
2023/07/18 03:05:12;;;;;;;;;;;16.10;75.90;;;;;;4952709;28;19918;-77
2023/07/18 03:07:37;;;;;;;;;;;16.10;75.90;;;;;;4970309;28;19922;-77
2023/07/18 03:10:05;;;;;;;;;;;16.00;75.90;;;;;;4970004;28;20297;-77
2023/07/18 03:12:30;;;;;;;;;;;16.00;76.10;;;;;;4970007;28;19910;-77
2023/07/18 03:14:56;;;;;;;;;;;15.90;76.20;;;;;;4970150;28;19960;-77
2023/07/18 03:17:21;;;;;;;;;;;15.90;76.20;;;;;;4952509;28;19922;-77
2023/07/18 03:19:47;;;;;;;;;;;16.00;76.20;;;;;;4969890;28;19919;-77
2023/07/18 03:22:13;;;;;;;;;;;16.00;76.10;;;;;;4952769;28;19957;-77
2023/07/18 03:24:38;;;;;;;;;;;15.90;76.00;;;;;;4969911;28;19958;-77
2023/07/18 03:27:04;;;;;;;;;;;15.90;76.20;;;;;;4936741;28;20473;-77
2023/07/18 03:29:30;;;;;;;;;;;15.90;76.20;;;;;;4952505;28;19969;-77
2023/07/18 03:31:55;;;;;;;;;;;15.90;76.20;;;;;;4952771;28;20053;-77
2023/07/18 03:34:21;;;;;;;;;;;15.90;76.20;;;;;;4952454;28;19977;-77
2023/07/18 03:36:47;;;;;;;;;;;16.00;76.20;;;;;;4952565;28;19918;-77
2023/07/18 03:39:13;;;;;;;;;;;16.00;76.20;;;;;;4952486;28;20366;-77
2023/07/18 03:41:39;;;;;;;;;;;16.00;76.30;;;;;;4952715;28;19914;-77
2023/07/18 03:44:04;;;;;;;;;;;15.90;76.30;;;;;;4952713;28;19910;-77
2023/07/18 03:46:30;;;;;;;;;;;15.90;76.40;;;;;;4970096;28;19914;-77
2023/07/18 03:48:56;;;;;;;;;;;16.00;76.30;;;;;;4952698;28;19945;-77
2023/07/18 03:51:21;;;;;;;;;;;16.00;76.30;;;;;;4969927;28;20371;-77
2023/07/18 03:53:47;;;;;;;;;;;15.90;76.30;;;;;;4954879;28;19914;-76
2023/07/18 03:56:12;;;;;;;;;;;15.90;76.30;;;;;;4973529;28;20391;-76
2023/07/18 03:58:38;;;;;;;;;;;15.90;76.30;;;;;;4955181;28;20359;-77
2023/07/18 04:01:07;;;;;;;;;;;15.90;76.40;;;;;;4972419;28;19925;-77
2023/07/18 04:03:33;;;;;;;;;;;15.80;76.50;;;;;;4972189;28;19925;-77
2023/07/18 04:05:59;;;;;;;;;;;15.80;76.60;;;;;;4973136;28;19910;-77
2023/07/18 04:08:24;;;;;;;;;;;15.80;76.60;;;;;;4938957;28;20445;-77
2023/07/18 04:10:50;;;;;;;;;;;15.80;76.60;;;;;;4954855;28;19918;-78
2023/07/18 04:13:15;;;;;;;;;;;15.80;76.60;;;;;;4972904;28;19921;-76
2023/07/18 04:15:41;;;;;;;;;;;15.80;76.60;;;;;;4956223;28;19919;-77
2023/07/18 04:18:07;;;;;;;;;;;15.90;76.60;;;;;;4954406;28;19922;-78
2023/07/18 04:20:32;;;;;;;;;;;15.90;76.50;;;;;;4971909;28;19960;-78
2023/07/18 04:22:58;;;;;;;;;;;16.00;76.40;;;;;;4971718;28;20284;-78
2023/07/18 04:25:23;;;;;;;;;;;16.10;76.40;;;;;;4971872;28;19958;-78
2023/07/18 04:27:49;;;;;;;;;;;16.00;76.30;;;;;;4971605;28;19961;-78
2023/07/18 04:30:14;;;;;;;;;;;16.10;76.50;;;;;;4954207;28;19961;-78
2023/07/18 04:32:41;;;;;;;;;;;16.10;76.50;;;;;;4954408;28;19918;-78
2023/07/18 04:35:08;;;;;;;;;;;16.10;76.50;;;;;;4971968;28;19973;-77
2023/07/18 04:37:33;;;;;;;;;;;16.10;76.40;;;;;;4954176;28;19918;-77
2023/07/18 04:39:59;;;;;;;;;;;16.20;76.30;;;;;;4971740;28;19914;-78
2023/07/18 04:42:24;;;;;;;;;;;16.20;76.30;;;;;;4971981;28;20001;-77
2023/07/18 04:44:50;;;;;;;;;;;16.20;76.30;;;;;;4971672;28;20378;-77
2023/07/18 04:47:15;;;;;;;;;;;16.20;76.30;;;;;;4971435;28;19914;-78
2023/07/18 04:49:41;;;;;;;;;;;16.20;76.20;;;;;;4971435;28;19922;-77
2023/07/18 04:52:07;;;;;;;;;;;16.10;76.00;;;;;;4971286;28;19915;-78
2023/07/18 04:54:33;;;;;;;;;;;16.10;76.00;;;;;;4971606;28;20348;-78
2023/07/18 04:56:58;;;;;;;;;;;16.20;76.00;;;;;;4971301;28;19918;-77
2023/07/18 04:59:24;;;;;;;;;;;16.10;76.00;;;;;;4954134;28;20370;-77
2023/07/18 05:01:53;;;;;;;;;;;16.10;76.00;;;;;;4971277;28;19925;-77
2023/07/18 05:04:19;;;;;;;;;;;16.00;76.10;;;;;;4953343;28;19914;-77
2023/07/18 05:06:45;;;;;;;;;;;16.00;76.10;;;;;;4971038;28;19921;-77
2023/07/18 05:09:11;;;;;;;;;;;16.00;76.00;;;;;;4970993;28;19957;-78
2023/07/18 05:11:36;;;;;;;;;;;16.00;76.10;;;;;;4970946;28;19965;-77
2023/07/18 05:14:02;;;;;;;;;;;15.90;76.10;;;;;;4971183;28;19977;-77
2023/07/18 05:16:27;;;;;;;;;;;15.90;76.10;;;;;;4970774;28;19978;-77
2023/07/18 05:18:53;;;;;;;;;;;15.80;76.10;;;;;;4970772;28;19953;-77
2023/07/18 05:21:19;;;;;;;;;;;15.80;76.10;;;;;;4970840;28;19924;-77
2023/07/18 05:23:45;;;;;;;;;;;15.70;76.10;;;;;;4970973;28;20342;-77
2023/07/18 05:26:10;;;;;;;;;;;15.70;76.20;;;;;;4953437;28;19961;-77
2023/07/18 05:28:36;;;;;;;;;;;15.70;76.20;;;;;;4937118;28;19988;-77
2023/07/18 05:31:10;;;;;;;;;;;15.70;76.20;;;;;;4970398;28;19914;-76
2023/07/18 05:33:36;;;;;;;;;;;15.70;76.30;;;;;;4953071;28;20017;-77
2023/07/18 05:36:01;;;;;;;;;;;15.70;76.30;;;;;;4970540;28;20000;-77
2023/07/18 05:38:27;;;;;;;;;;;15.70;76.50;;;;;;4970308;28;19921;-77
2023/07/18 05:40:53;;;;;;;;;;;15.80;76.50;;;;;;4953283;28;19964;-77
2023/07/18 05:43:19;;;;;;;;;;;15.80;76.80;;;;;;4953044;28;19914;-78
2023/07/18 05:45:45;;;;;;;;;;;15.80;76.30;;;;;;4970179;28;20094;-77
2023/07/18 05:48:10;;;;;;;;;;;15.80;76.20;;;;;;4952815;28;19914;-77
2023/07/18 05:50:36;;;;;;;;;;;15.60;76.30;;;;;;4953148;28;19925;-77
2023/07/18 05:53:01;;;;;;;;;;;15.60;76.50;;;;;;4971902;28;20001;-77
2023/07/18 05:55:27;;;;;;;;;;;15.60;76.40;;;;;;4952867;28;19914;-77
2023/07/18 05:57:53;;;;;;;;;;;15.60;76.50;;;;;;4970014;28;19929;-76
2023/07/18 06:00:19;;;;;;;;;;;15.60;76.50;;;;;;4936437;28;19920;-77
2023/07/18 06:02:47;;;;;;;;;;;15.60;76.50;;;;;;4969945;28;19925;-77
2023/07/18 06:05:13;;;;;;;;;;;15.60;76.60;;;;;;4969819;28;20394;-77
2023/07/18 06:07:39;;;;;;;;;;;15.70;76.50;;;;;;4969903;28;19914;-77
2023/07/18 06:10:05;;;;;;;;;;;15.70;76.50;;;;;;4969961;28;20422;-77
2023/07/18 06:12:31;;;;;;;;;;;15.80;76.50;;;;;;4969819;28;19914;-77
2023/07/18 06:14:56;;;;;;;;;;;15.80;76.50;;;;;;4952676;28;19922;-77
2023/07/18 06:17:22;;;;;;;;;;;15.80;76.40;;;;;;4951603;28;19964;-77
2023/07/18 06:19:47;;;;;;;;;;;15.80;76.40;;;;;;4969564;28;19993;-77
2023/07/18 06:22:13;;;;;;;;;;;15.90;76.40;;;;;;4952483;28;19918;-77
2023/07/18 06:24:39;;;;;;;;;;;15.90;76.40;;;;;;4952274;28;19910;-77
2023/07/18 06:27:05;;;;;;;;;;;15.90;76.40;;;;;;4952147;28;19977;-77
2023/07/18 06:29:31;;;;;;;;;;;15.90;76.40;;;;;;4969141;28;20342;-77
2023/07/18 06:31:56;;;;;;;;;;;15.90;76.50;;;;;;4952045;28;19914;-77
2023/07/18 06:34:22;;;;;;;;;;;15.90;76.50;;;;;;4951959;28;19914;-77
2023/07/18 06:36:48;;;;;;;;;;;15.80;76.60;;;;;;4969405;28;20358;-77
2023/07/18 06:39:16;;;;;;;;;;;15.80;76.70;;;;;;4952154;28;20009;-77
2023/07/18 06:41:43;;;;;;;;;;;15.70;77.30;;;;;;4969290;28;20403;-77
2023/07/18 06:44:10;;;;;;;;;;;15.70;76.90;;;;;;4969198;28;19922;-77
2023/07/18 06:46:36;;;;;;;;;;;15.80;76.90;;;;;;4951584;28;19961;-77
2023/07/18 06:49:01;;;;;;;;;;;15.80;76.90;;;;;;4968540;28;20358;-77
2023/07/18 06:51:27;;;;;;;;;;;15.80;77.00;;;;;;4968858;28;19926;-77
2023/07/18 06:53:53;;;;;;;;;;;15.80;77.10;;;;;;4969061;28;20127;-77
2023/07/18 06:56:18;;;;;;;;;;;15.80;76.90;;;;;;4969131;28;19921;-77
2023/07/18 06:58:44;;;;;;;;;;;15.80;76.80;;;;;;4951407;28;19921;-77
2023/07/18 07:01:10;;;;;;;;;;;15.80;77.00;;;;;;4968514;28;20446;-77
2023/07/18 07:03:36;;;;;;;;;;;15.70;76.90;;;;;;4951614;28;19925;-77
2023/07/18 07:06:01;;;;;;;;;;;15.80;77.00;;;;;;4969104;28;20283;-77
2023/07/18 07:08:29;;;;;;;;;;;15.80;77.00;;;;;;4951720;28;19914;-77
2023/07/18 07:11:04;;;;;;;;;;;15.80;76.90;;;;;;4969115;28;19929;-75
2023/07/18 07:13:30;;;;;;;;;;;15.90;77.00;;;;;;4968809;28;20174;-77
2023/07/18 07:15:55;;;;;;;;;;;15.90;76.80;;;;;;4951286;28;19914;-77
2023/07/18 07:18:21;;;;;;;;;;;16.00;76.70;;;;;;4968744;28;20284;-77
2023/07/18 07:20:46;;;;;;;;;;;16.00;76.70;;;;;;4968957;28;20272;-77
2023/07/18 07:23:12;;;;;;;;;;;16.00;76.60;;;;;;4951849;28;20008;-77
2023/07/18 07:25:37;;;;;;;;;;;16.00;76.70;;;;;;4951526;28;19910;-77
2023/07/18 07:28:04;;;;;;;;;;;16.00;76.80;;;;;;4970103;28;19914;-78
2023/07/18 07:30:29;;;;;;;;;;;16.00;76.70;;;;;;4973717;28;20013;-78
2023/07/18 07:32:55;;;;;;;;;;;16.10;76.70;;;;;;4955229;28;20021;-76
2023/07/18 07:35:22;;;;;;;;;;;16.10;76.60;;;;;;4972586;28;20107;-76
2023/07/18 07:37:50;;;;;;;;;;;16.10;76.60;;;;;;4972296;28;19918;-76
2023/07/18 07:40:16;;;;;;;;;;;16.00;76.60;;;;;;4955144;28;20358;-77
2023/07/18 07:42:43;;;;;;;;;;;15.90;76.60;;;;;;4972563;28;19980;-77
2023/07/18 07:45:09;;;;;;;;;;;15.90;76.80;;;;;;4972259;28;20394;-76
2023/07/18 07:47:35;;;;;;;;;;;15.80;76.90;;;;;;4954666;28;19910;-76
2023/07/18 07:50:01;;;;;;;;;;;15.80;76.90;;;;;;4954489;28;19981;-77
2023/07/18 07:52:28;;;;;;;;;;;15.80;76.90;;;;;;4971860;28;20385;-77
2023/07/18 07:54:53;;;;;;;;;;;15.90;77.10;;;;;;4954506;28;19921;-77
2023/07/18 07:57:19;;;;;;;;;;;15.90;77.00;;;;;;4971881;28;19918;-76
2023/07/18 07:59:44;;;;;;;;;;;16.00;77.20;;;;;;4971713;28;20060;-77
2023/07/18 08:02:10;;;;;;;;;;;16.10;77.20;;;;;;4938326;28;19918;-77
2023/07/18 08:04:37;;;;;;;;;;;16.20;77.00;;;;;;4972331;28;19910;-77
2023/07/18 08:07:03;;;;;;;;;;;16.20;76.80;;;;;;4971622;28;20009;-76
2023/07/18 08:09:29;;;;;;;;;;;16.20;77.00;;;;;;4954841;28;20430;-78
2023/07/18 08:11:54;;;;;;;;;;;16.20;76.90;;;;;;4954292;28;20008;-78
2023/07/18 08:14:21;;;;;;;;;;;16.20;77.00;;;;;;4954019;28;20005;-78
2023/07/18 08:16:47;;;;;;;;;;;16.30;77.20;;;;;;4950573;29;20005;-78
2023/07/18 08:19:12;;;;;;;;;;;16.40;77.40;;;;;;4964536;28;19922;-78
2023/07/18 08:21:38;;;;;;;;;;;16.70;77.50;;;;;;4973270;28;20012;-78
2023/07/18 08:24:04;;;;;;;;;;;16.90;77.40;;;;;;4956489;28;19942;-77
2023/07/18 08:26:29;;;;;;;;;;;17.10;77.40;;;;;;4966245;28;20264;-77
2023/07/18 08:28:55;;;;;;;;;;;17.20;77.30;;;;;;4970173;28;19934;-77
2023/07/18 08:31:20;;;;;;;;;;;17.20;77.10;;;;;;4970137;28;19914;-77
2023/07/18 08:33:46;;;;;;;;;;;17.20;77.00;;;;;;4946282;28;20294;-78
2023/07/18 08:36:11;;;;;;;;;;;17.20;76.70;;;;;;4973400;28;19918;-78
2023/07/18 08:38:37;;;;;;;;;;;17.10;76.70;;;;;;4955372;28;19918;-78
2023/07/18 08:41:03;;;;;;;;;;;16.90;76.80;;;;;;4972656;28;19923;-77
2023/07/18 08:43:31;;;;;;;;;;;16.70;76.90;;;;;;4970691;28;20274;-78
2023/07/18 08:45:57;;;;;;;;;;;16.60;77.00;;;;;;4969344;28;19917;-73
2023/07/18 08:48:23;;;;;;;;;;;16.30;77.20;;;;;;4943284;28;19965;-73
2023/07/18 08:50:51;;;;;;;;;;;16.20;77.40;;;;;;4958072;28;20279;-77
2023/07/18 08:53:16;;;;;;;;;;;16.10;77.60;;;;;;4963912;28;19964;-77
2023/07/18 08:55:43;;;;;;;;;;;16.00;77.90;;;;;;4970597;28;19914;-77
2023/07/18 08:58:08;;;;;;;;;;;16.00;78.00;;;;;;4962689;28;19921;-78
2023/07/18 09:00:34;;;;;;;;;;;16.10;77.90;;;;;;4972560;28;20061;-78
2023/07/18 09:02:59;;;;;;;;;;;16.20;77.60;;;;;;4958870;28;19915;-78
2023/07/18 09:05:32;;;;;;;;;;;16.20;77.40;;;;;;4954964;28;20393;-80
2023/07/18 09:07:58;;;;;;;;;;;16.20;77.30;;;;;;4956284;28;19933;-78
2023/07/18 09:10:24;;;;;;;;;;;16.20;77.30;;;;;;4972849;28;19928;-79
2023/07/18 09:12:50;;;;;;;;;;;16.20;77.20;;;;;;4957564;28;19910;-79
2023/07/18 09:15:22;;;;;;;;;;;16.20;77.30;;;;;;4953184;29;19926;-68
2023/07/18 09:17:54;;;;;;;;;;;16.10;77.40;;;;;;4968268;28;19937;-80
2023/07/18 09:20:21;;;;;;;;;;;16.10;77.60;;;;;;4944431;29;19911;-78
2023/07/18 09:22:46;;;;;;;;;;;16.10;78.10;;;;;;4934170;29;20287;-79
2023/07/18 09:25:16;;;;;;;;;;;16.10;77.40;;;;;;4934220;29;19915;-78
2023/07/18 09:27:41;;;;;;;;;;;16.10;77.50;;;;;;4947481;28;20353;-79
2023/07/18 09:30:07;;;;;;;;;;;16.20;77.60;;;;;;4972958;28;19926;-78
2023/07/18 09:32:33;;;;;;;;;;;16.20;77.50;;;;;;4957521;28;20290;-78
2023/07/18 09:35:00;;;;;;;;;;;16.30;77.50;;;;;;4939057;28;19914;-78
2023/07/18 09:37:25;;;;;;;;;;;16.30;77.50;;;;;;4945075;29;19993;-78
2023/07/18 09:39:51;;;;;;;;;;;16.30;77.50;;;;;;4933953;29;20050;-78
2023/07/18 09:42:17;;;;;;;;;;;16.40;77.60;;;;;;4934099;29;19911;-78
2023/07/18 09:44:45;;;;;;;;;;;16.40;77.60;;;;;;4943562;29;19910;-78
2023/07/18 09:47:12;;;;;;;;;;;16.40;77.60;;;;;;4935807;29;19997;-78
2023/07/18 09:49:38;;;;;;;;;;;16.40;77.60;;;;;;4955084;28;19911;-78
2023/07/18 09:52:05;;;;;;;;;;;16.50;77.80;;;;;;4966378;28;19918;-76
2023/07/18 09:54:31;;;;;;;;;;;16.60;77.90;;;;;;4952255;29;19911;-78
2023/07/18 09:57:04;;;;;;;;;;;16.80;77.70;;;;;;4935187;29;19922;-79
2023/07/18 09:59:29;;;;;;;;;;;16.80;77.30;;;;;;4952439;29;19977;-78
2023/07/18 10:01:56;;;;;;;;;;;16.90;77.20;;;;;;4952057;29;19958;-79
2023/07/18 10:04:22;;;;;;;;;;;17.00;77.10;;;;;;4952127;29;20438;-78
2023/07/18 10:06:48;;;;;;;;;;;16.90;77.20;;;;;;4935656;29;19998;-79
2023/07/18 10:09:14;;;;;;;;;;;16.90;77.20;;;;;;4935961;29;19910;-79
2023/07/18 10:12:05;;;;;;;;;;;17.00;77.20;;;;;;4956082;29;19921;-79
2023/07/18 10:14:47;;;;;;;;;;;16.90;77.10;;;;;;4938456;29;20236;-79
2023/07/18 10:17:26;;;;;;;;;;;16.80;77.20;;;;;;4955323;29;19915;-79
2023/07/18 10:19:52;;;;;;;;;;;16.80;77.10;;;;;;4952835;29;19911;-79
2023/07/18 10:22:31;;;;;;;;;;;16.70;77.10;;;;;;4934852;29;20267;-77
2023/07/18 10:25:00;;;;;;;;;;;16.70;77.20;;;;;;4953084;29;20009;-79
2023/07/18 10:27:46;;;;;;;;;;;16.60;77.10;;;;;;4953092;29;19917;-78
2023/07/18 10:30:15;;;;;;;;;;;16.50;77.10;;;;;;4969075;28;19933;-77
2023/07/18 10:32:42;;;;;;;;;;;16.40;77.40;;;;;;4971688;28;19915;-78
2023/07/18 10:35:11;;;;;;;;;;;16.50;77.70;;;;;;4954034;28;19910;-76
2023/07/18 10:37:37;;;;;;;;;;;16.50;77.80;;;;;;4971233;28;19921;-77
2023/07/18 10:40:06;;;;;;;;;;;16.60;77.70;;;;;;4972110;28;19910;-78
2023/07/18 10:42:34;;;;;;;;;;;16.80;77.70;;;;;;4970824;28;19914;-78
2023/07/18 10:45:00;;;;;;;;;;;16.90;77.60;;;;;;4974322;28;19918;-78
2023/07/18 10:47:26;;;;;;;;;;;16.90;77.50;;;;;;4971611;28;19914;-78
2023/07/18 10:49:52;;;;;;;;;;;17.10;77.50;;;;;;4973323;28;19914;-78
2023/07/18 10:52:19;;;;;;;;;;;17.20;77.40;;;;;;4973184;28;19997;-78
2023/07/18 10:54:47;;;;;;;;;;;17.20;77.30;;;;;;4955842;28;20263;-79
2023/07/18 10:57:13;;;;;;;;;;;17.20;77.40;;;;;;4959912;28;19922;-79
2023/07/18 10:59:41;;;;;;;;;;;17.20;77.60;;;;;;4965232;28;20367;-78
2023/07/18 11:02:06;;;;;;;;;;;17.20;77.90;;;;;;4952584;29;19965;-78
2023/07/18 11:04:32;;;;;;;;;;;17.40;78.00;;;;;;4935481;29;19915;-78
2023/07/18 11:06:59;;;;;;;;;;;17.70;78.20;;;;;;4961263;28;19918;-78
2023/07/18 11:09:25;;;;;;;;;;;18.00;78.30;;;;;;4971119;28;19915;-79
2023/07/18 11:11:50;;;;;;;;;;;18.30;78.10;;;;;;4971129;28;19914;-79
2023/07/18 11:14:18;;;;;;;;;;;18.50;78.10;;;;;;4953321;28;19990;-78
2023/07/18 11:16:44;;;;;;;;;;;18.90;77.90;;;;;;4970983;28;20375;-78
2023/07/18 11:19:10;;;;;;;;;;;19.20;77.70;;;;;;4971832;28;20009;-79
2023/07/18 11:21:36;;;;;;;;;;;19.40;77.50;;;;;;4971419;28;19910;-79
2023/07/18 11:24:02;;;;;;;;;;;19.50;77.30;;;;;;4954110;28;19910;-78
2023/07/18 11:26:28;;;;;;;;;;;19.50;77.30;;;;;;4971232;28;19916;-79
2023/07/18 11:28:55;;;;;;;;;;;19.50;77.20;;;;;;4954830;28;19953;-78
2023/07/18 11:31:20;;;;;;;;;;;19.50;77.40;;;;;;4971519;28;19914;-78
2023/07/18 11:33:49;;;;;;;;;;;19.60;77.40;;;;;;4970852;28;20535;-78
2023/07/18 11:36:15;;;;;;;;;;;19.50;77.40;;;;;;4971922;28;19911;-78
2023/07/18 11:38:41;;;;;;;;;;;19.50;77.70;;;;;;4972434;28;19929;-78
2023/07/18 11:41:33;;;;;;;;;;;19.60;78.30;;;;;;4954741;28;20064;-79
2023/07/18 11:44:01;;;;;;;;;;;20.00;78.70;;;;;;4966517;28;20369;-79
2023/07/18 11:46:34;;;;;;;;;;;20.30;78.40;;;;;;4969811;28;19914;-77
2023/07/18 11:49:00;;;;;;;;;;;20.50;78.30;;;;;;4969385;28;19997;-78
2023/07/18 11:51:27;;;;;;;;;;;20.70;78.00;;;;;;4969424;28;20307;-78
2023/07/18 11:53:53;;;;;;;;;;;20.70;78.00;;;;;;4969025;28;19922;-78
2023/07/18 11:56:19;;;;;;;;;;;20.80;78.10;;;;;;4953066;28;19910;-78
2023/07/18 11:58:45;;;;;;;;;;;20.90;78.30;;;;;;4950599;29;19929;-76
2023/07/18 12:01:10;;;;;;;;;;;21.20;78.30;;;;;;4950955;29;20320;-78
2023/07/18 12:03:36;;;;;;;;;;;21.30;78.10;;;;;;4933125;29;20030;-71
2023/07/18 12:06:02;;;;;;;;;;;21.30;78.10;;;;;;4951550;28;19915;-79
2023/07/18 12:08:27;;;;;;;;;;;21.50;78.40;;;;;;4952801;29;19963;-79
2023/07/18 12:10:53;;;;;;;;;;;21.50;77.90;;;;;;4952199;29;20032;-78
2023/07/18 12:13:19;;;;;;;;;;;21.40;77.80;;;;;;4952122;28;19970;-78
2023/07/18 12:15:44;;;;;;;;;;;21.30;78.30;;;;;;4937491;29;19985;-78
2023/07/18 12:18:11;;;;;;;;;;;21.20;78.20;;;;;;4938004;29;20335;-78
2023/07/18 12:20:36;;;;;;;;;;;21.10;78.40;;;;;;4954850;29;19915;-79
2023/07/18 12:23:02;;;;;;;;;;;21.20;78.50;;;;;;4958665;29;19918;-79
2023/07/18 12:25:31;;;;;;;;;;;21.40;78.50;;;;;;4956092;28;19915;-80
2023/07/18 12:28:00;;;;;;;;;;;21.60;78.70;;;;;;4963830;28;20001;-80
2023/07/18 12:30:30;;;;;;;;;;;22.20;79.60;;;;;;4974714;28;19926;-81
2023/07/18 12:32:56;;;;;;;;;;;22.90;79.60;;;;;;4973926;28;19981;-80
2023/07/18 12:35:21;;;;;;;;;;;23.30;79.30;;;;;;4973843;28;19918;-80
2023/07/18 12:37:47;;;;;;;;;;;23.80;79.60;;;;;;4973892;28;19925;-78
2023/07/18 12:40:13;;;;;;;;;;;24.50;79.50;;;;;;4972755;28;19910;-78
2023/07/18 12:42:38;;;;;;;;;;;25.20;79.50;;;;;;4974114;28;19945;-77
2023/07/18 12:45:04;;;;;;;;;;;25.70;79.20;;;;;;4956590;28;20286;-77
2023/07/18 12:47:30;;;;;;;;;;;26.00;79.10;;;;;;4973112;28;19910;-77
2023/07/18 12:49:55;;;;;;;;;;;26.00;78.40;;;;;;4973372;28;20008;-78
2023/07/18 12:52:21;;;;;;;;;;;25.50;78.00;;;;;;4972832;28;19941;-78
2023/07/18 12:54:46;;;;;;;;;;;25.00;78.00;;;;;;4955565;28;20270;-78
2023/07/18 12:57:12;;;;;;;;;;;24.50;78.10;;;;;;4972708;28;19961;-78
2023/07/18 12:59:37;;;;;;;;;;;23.90;78.50;;;;;;4955690;28;19918;-79
2023/07/18 13:02:03;;;;;;;;;;;23.50;78.90;;;;;;4973012;28;20005;-78
2023/07/18 13:04:29;;;;;;;;;;;23.10;79.10;;;;;;4955342;28;20018;-78
2023/07/18 13:06:54;;;;;;;;;;;22.60;79.30;;;;;;4955196;28;19914;-79
2023/07/18 13:09:20;;;;;;;;;;;22.20;79.50;;;;;;4972828;28;20380;-77
2023/07/18 13:11:46;;;;;;;;;;;21.80;79.60;;;;;;4955188;28;20466;-77
2023/07/18 13:14:19;;;;;;;;;;;21.60;80.00;;;;;;4955592;28;20291;-77
2023/07/18 13:16:44;;;;;;;;;;;21.50;80.20;;;;;;4955280;28;19933;-77
2023/07/18 13:19:10;;;;;;;;;;;21.60;80.40;;;;;;4954924;28;20523;-77
2023/07/18 13:21:35;;;;;;;;;;;21.80;80.20;;;;;;4955094;28;19918;-77
2023/07/18 13:24:01;;;;;;;;;;;22.10;80.20;;;;;;4971912;28;20539;-78
2023/07/18 13:26:27;;;;;;;;;;;22.50;79.90;;;;;;4938769;28;19915;-79
2023/07/18 13:28:52;;;;;;;;;;;22.80;79.50;;;;;;4958474;28;19969;-78
2023/07/18 13:31:18;;;;;;;;;;;23.00;79.30;;;;;;4972306;28;19949;-78
2023/07/18 13:33:43;;;;;;;;;;;23.30;79.00;;;;;;4972738;28;19914;-78
2023/07/18 13:36:09;;;;;;;;;;;23.30;78.40;;;;;;4971623;28;19928;-76
2023/07/18 13:38:34;;;;;;;;;;;23.20;78.20;;;;;;4972014;28;20005;-79
2023/07/18 13:41:03;;;;;;;;;;;23.00;78.30;;;;;;4955055;28;19919;-79
2023/07/18 13:43:29;;;;;;;;;;;22.90;78.40;;;;;;4972577;28;19937;-78
2023/07/18 13:45:54;;;;;;;;;;;22.70;78.50;;;;;;4955514;28;20347;-79
2023/07/18 13:48:20;;;;;;;;;;;22.50;78.70;;;;;;4955595;28;20558;-78
2023/07/18 13:50:45;;;;;;;;;;;22.30;79.10;;;;;;4972171;28;19973;-78
2023/07/18 13:53:11;;;;;;;;;;;22.20;79.30;;;;;;4973062;28;19918;-79
2023/07/18 13:55:36;;;;;;;;;;;22.00;79.20;;;;;;4970783;28;19914;-78
2023/07/18 13:58:02;;;;;;;;;;;21.80;79.10;;;;;;4955367;28;19918;-78
2023/07/18 14:00:29;;;;;;;;;;;21.50;78.90;;;;;;4972447;28;19925;-79
2023/07/18 14:02:55;;;;;;;;;;;21.10;79.00;;;;;;4971995;28;19914;-77
2023/07/18 14:05:20;;;;;;;;;;;20.70;79.30;;;;;;4972068;28;20374;-78
2023/07/18 14:07:46;;;;;;;;;;;20.40;79.70;;;;;;4977760;28;19941;-78
2023/07/18 14:10:11;;;;;;;;;;;20.30;79.90;;;;;;4974190;28;19911;-78
2023/07/18 14:12:37;;;;;;;;;;;20.40;79.80;;;;;;4960880;28;19914;-77